sensor_id;sensor_type;location;lat;lon;timestamp;pressure;altitude;pressure_sealevel;temperature;humidity
60240;BME280;46102;39.012;-7.064;2023-04-19T00:01:26;97619.66;;;19.76;27.66
60240;BME280;46102;39.012;-7.064;2023-04-19T00:03:27;97618.09;;;19.71;27.72
60240;BME280;46102;39.012;-7.064;2023-04-19T00:05:29;97615.69;;;19.70;27.86
60240;BME280;46102;39.012;-7.064;2023-04-19T00:07:30;97621.25;;;19.70;27.83
60240;BME280;46102;39.012;-7.064;2023-04-19T00:09:31;97620.09;;;19.71;27.79
60240;BME280;46102;39.012;-7.064;2023-04-19T00:11:32;97625.66;;;19.71;27.87
60240;BME280;46102;39.012;-7.064;2023-04-19T00:13:33;97626.41;;;19.68;27.95
60240;BME280;46102;39.012;-7.064;2023-04-19T00:15:33;97623.25;;;19.69;27.91
60240;BME280;46102;39.012;-7.064;2023-04-19T00:17:34;97619.28;;;19.70;27.81
60240;BME280;46102;39.012;-7.064;2023-04-19T00:19:35;97625.25;;;19.69;27.71
60240;BME280;46102;39.012;-7.064;2023-04-19T00:21:36;97621.25;;;19.66;27.94
60240;BME280;46102;39.012;-7.064;2023-04-19T00:23:37;97630.00;;;19.65;28.08
60240;BME280;46102;39.012;-7.064;2023-04-19T00:25:38;97630.41;;;19.60;28.35
60240;BME280;46102;39.012;-7.064;2023-04-19T00:27:38;97628.81;;;19.55;28.63
60240;BME280;46102;39.012;-7.064;2023-04-19T00:29:39;97629.22;;;19.50;28.97
60240;BME280;46102;39.012;-7.064;2023-04-19T00:31:40;97628.44;;;19.42;29.14
60240;BME280;46102;39.012;-7.064;2023-04-19T00:33:41;97625.66;;;19.35;29.24
60240;BME280;46102;39.012;-7.064;2023-04-19T00:35:42;97621.69;;;19.29;29.42
60240;BME280;46102;39.012;-7.064;2023-04-19T00:37:43;97621.69;;;19.25;29.49
60240;BME280;46102;39.012;-7.064;2023-04-19T00:39:47;97620.47;;;19.23;29.55
60240;BME280;46102;39.012;-7.064;2023-04-19T00:41:47;97620.09;;;19.21;29.54
60240;BME280;46102;39.012;-7.064;2023-04-19T00:43:48;97617.31;;;19.17;29.52
60240;BME280;46102;39.012;-7.064;2023-04-19T00:45:49;97623.69;;;19.14;29.55
60240;BME280;46102;39.012;-7.064;2023-04-19T00:47:50;97620.06;;;19.13;29.52
60240;BME280;46102;39.012;-7.064;2023-04-19T00:49:53;97622.47;;;19.11;29.54
60240;BME280;46102;39.012;-7.064;2023-04-19T00:51:54;97618.88;;;19.11;29.50
60240;BME280;46102;39.012;-7.064;2023-04-19T00:53:55;97617.72;;;19.12;29.49
60240;BME280;46102;39.012;-7.064;2023-04-19T00:55:58;97614.94;;;19.12;29.26
60240;BME280;46102;39.012;-7.064;2023-04-19T00:58:01;97616.13;;;19.07;29.29
60240;BME280;46102;39.012;-7.064;2023-04-19T01:00:02;97622.47;;;19.04;29.17
60240;BME280;46102;39.012;-7.064;2023-04-19T01:02:06;97616.50;;;19.02;29.37
60240;BME280;46102;39.012;-7.064;2023-04-19T01:04:07;97612.16;;;19.01;29.36
60240;BME280;46102;39.012;-7.064;2023-04-19T01:06:08;97615.72;;;19.02;29.30
60240;BME280;46102;39.012;-7.064;2023-04-19T01:08:09;97615.72;;;19.02;29.31
60240;BME280;46102;39.012;-7.064;2023-04-19T01:10:09;97616.91;;;19.01;29.11
60240;BME280;46102;39.012;-7.064;2023-04-19T01:12:10;97616.91;;;19.04;29.00
60240;BME280;46102;39.012;-7.064;2023-04-19T01:14:11;97613.75;;;19.06;28.92
60240;BME280;46102;39.012;-7.064;2023-04-19T01:16:12;97607.78;;;19.07;28.76
60240;BME280;46102;39.012;-7.064;2023-04-19T01:18:13;97607.78;;;19.11;28.68
60240;BME280;46102;39.012;-7.064;2023-04-19T01:20:13;97609.38;;;19.08;28.73
60240;BME280;46102;39.012;-7.064;2023-04-19T01:22:19;97611.34;;;19.08;28.78
60240;BME280;46102;39.012;-7.064;2023-04-19T01:24:20;97612.16;;;19.08;29.10
60240;BME280;46102;39.012;-7.064;2023-04-19T01:26:23;97614.91;;;19.05;29.37
60240;BME280;46102;39.012;-7.064;2023-04-19T01:28:24;97612.13;;;19.05;29.35
60240;BME280;46102;39.012;-7.064;2023-04-19T01:30:25;97614.94;;;19.01;29.59
60240;BME280;46102;39.012;-7.064;2023-04-19T01:32:29;97620.88;;;18.96;29.95
60240;BME280;46102;39.012;-7.064;2023-04-19T01:34:30;97621.28;;;18.95;29.95
60240;BME280;46102;39.012;-7.064;2023-04-19T01:36:30;97618.47;;;18.91;29.94
60240;BME280;46102;39.012;-7.064;2023-04-19T01:38:31;97623.66;;;18.92;30.02
60240;BME280;46102;39.012;-7.064;2023-04-19T01:40:32;97626.44;;;18.92;30.14
60240;BME280;46102;39.012;-7.064;2023-04-19T01:42:33;97619.69;;;18.90;29.98
60240;BME280;46102;39.012;-7.064;2023-04-19T01:44:34;97618.09;;;18.92;29.99
60240;BME280;46102;39.012;-7.064;2023-04-19T01:46:35;97621.25;;;18.91;30.02
60240;BME280;46102;39.012;-7.064;2023-04-19T01:48:38;97619.69;;;18.90;30.03
60240;BME280;46102;39.012;-7.064;2023-04-19T01:50:38;97626.81;;;18.91;29.89
60240;BME280;46102;39.012;-7.064;2023-04-19T01:52:39;97626.81;;;18.91;29.82
60240;BME280;46102;39.012;-7.064;2023-04-19T01:54:40;97622.44;;;18.90;29.82
60240;BME280;46102;39.012;-7.064;2023-04-19T01:56:41;97620.84;;;18.89;29.84
60240;BME280;46102;39.012;-7.064;2023-04-19T01:58:42;97623.25;;;18.87;29.84
60240;BME280;46102;39.012;-7.064;2023-04-19T02:00:42;97625.63;;;18.85;29.77
60240;BME280;46102;39.012;-7.064;2023-04-19T02:02:43;97623.63;;;18.85;29.77
60240;BME280;46102;39.012;-7.064;2023-04-19T02:04:44;97624.81;;;18.84;29.72
60240;BME280;46102;39.012;-7.064;2023-04-19T02:06:45;97628.00;;;18.86;29.76
60240;BME280;46102;39.012;-7.064;2023-04-19T02:08:46;97623.63;;;18.85;29.51
60240;BME280;46102;39.012;-7.064;2023-04-19T02:10:46;97621.63;;;18.82;29.62
60240;BME280;46102;39.012;-7.064;2023-04-19T02:12:47;97623.25;;;18.83;29.55
60240;BME280;46102;39.012;-7.064;2023-04-19T02:14:48;97622.44;;;18.83;29.63
60240;BME280;46102;39.012;-7.064;2023-04-19T02:16:49;97629.19;;;18.78;29.58
60240;BME280;46102;39.012;-7.064;2023-04-19T02:18:49;97629.13;;;18.75;29.61
60240;BME280;46102;39.012;-7.064;2023-04-19T02:20:52;97624.38;;;18.71;29.67
60240;BME280;46102;39.012;-7.064;2023-04-19T02:22:54;97627.94;;;18.68;29.54
60240;BME280;46102;39.012;-7.064;2023-04-19T02:24:54;97630.72;;;18.68;29.49
60240;BME280;46102;39.012;-7.064;2023-04-19T02:27:03;97623.19;;;18.69;29.38
60240;BME280;46102;39.012;-7.064;2023-04-19T02:29:06;97624.38;;;18.71;29.39
60240;BME280;46102;39.012;-7.064;2023-04-19T02:31:07;97626.75;;;18.73;29.33
60240;BME280;46102;39.012;-7.064;2023-04-19T02:33:08;97629.94;;;18.71;29.28
60240;BME280;46102;39.012;-7.064;2023-04-19T02:35:09;97625.97;;;18.72;29.22
60240;BME280;46102;39.012;-7.064;2023-04-19T02:37:11;97638.25;;;18.61;31.26
60240;BME280;46102;39.012;-7.064;2023-04-19T02:39:12;97642.47;;;18.26;31.65
60240;BME280;46102;39.012;-7.064;2023-04-19T02:41:13;97649.06;;;17.93;32.59
60240;BME280;46102;39.012;-7.064;2023-04-19T02:43:14;97642.97;;;17.73;32.91
60240;BME280;46102;39.012;-7.064;2023-04-19T02:45:17;97649.13;;;17.52;33.38
60240;BME280;46102;39.012;-7.064;2023-04-19T02:47:17;97641.09;;;17.32;34.34
60240;BME280;46102;39.012;-7.064;2023-04-19T02:49:19;97636.56;;;17.13;34.32
60240;BME280;46102;39.012;-7.064;2023-04-19T02:51:20;97638.06;;;17.03;34.50
60240;BME280;46102;39.012;-7.064;2023-04-19T02:53:20;97637.13;;;16.89;35.09
60240;BME280;46102;39.012;-7.064;2023-04-19T02:55:23;97645.38;;;16.81;35.86
60240;BME280;46102;39.012;-7.064;2023-04-19T02:57:32;97645.25;;;16.71;36.84
60240;BME280;46102;39.012;-7.064;2023-04-19T02:59:33;97641.53;;;16.59;37.96
60240;BME280;46102;39.012;-7.064;2023-04-19T03:01:37;97643.09;;;16.53;38.30
60240;BME280;46102;39.012;-7.064;2023-04-19T03:03:40;97650.19;;;16.51;38.48
60240;BME280;46102;39.012;-7.064;2023-04-19T03:05:41;97648.53;;;16.46;38.82
60240;BME280;46102;39.012;-7.064;2023-04-19T03:07:43;97643.00;;;16.46;38.81
60240;BME280;46102;39.012;-7.064;2023-04-19T03:09:44;97652.13;;;16.50;38.69
60240;BME280;46102;39.012;-7.064;2023-04-19T03:11:45;97642.69;;;16.55;38.71
60240;BME280;46102;39.012;-7.064;2023-04-19T03:13:46;97643.53;;;16.59;38.46
60240;BME280;46102;39.012;-7.064;2023-04-19T03:15:48;97641.97;;;16.61;38.19
60240;BME280;46102;39.012;-7.064;2023-04-19T03:17:49;97637.25;;;16.62;38.23
60240;BME280;46102;39.012;-7.064;2023-04-19T03:19:51;97642.72;;;16.58;38.57
60240;BME280;46102;39.012;-7.064;2023-04-19T03:21:52;97636.00;;;16.56;38.21
60240;BME280;46102;39.012;-7.064;2023-04-19T03:23:55;97647.44;;;16.54;38.37
60240;BME280;46102;39.012;-7.064;2023-04-19T03:25:57;97646.63;;;16.54;38.31
60240;BME280;46102;39.012;-7.064;2023-04-19T03:28:07;97646.28;;;16.55;38.19
60240;BME280;46102;39.012;-7.064;2023-04-19T03:30:43;97639.91;;;16.55;38.05
60240;BME280;46102;39.012;-7.064;2023-04-19T03:32:46;97643.91;;;16.57;37.79
60240;BME280;46102;39.012;-7.064;2023-04-19T03:34:47;97650.75;;;16.67;37.35
60240;BME280;46102;39.012;-7.064;2023-04-19T03:36:49;97650.84;;;16.78;36.81
60240;BME280;46102;39.012;-7.064;2023-04-19T03:38:50;97644.63;;;16.84;36.40
60240;BME280;46102;39.012;-7.064;2023-04-19T03:40:53;97646.69;;;16.91;36.56
60240;BME280;46102;39.012;-7.064;2023-04-19T03:42:56;97638.78;;;16.97;36.71
60240;BME280;46102;39.012;-7.064;2023-04-19T03:45:01;97643.97;;;17.02;36.51
60240;BME280;46102;39.012;-7.064;2023-04-19T03:47:04;97648.78;;;17.05;36.55
60240;BME280;46102;39.012;-7.064;2023-04-19T03:49:10;97639.28;;;17.06;36.56
60240;BME280;46102;39.012;-7.064;2023-04-19T03:51:11;97646.44;;;17.07;36.51
60240;BME280;46102;39.012;-7.064;2023-04-19T03:53:13;97649.19;;;17.07;36.46
60240;BME280;46102;39.012;-7.064;2023-04-19T03:55:14;97641.63;;;17.04;36.49
60240;BME280;46102;39.012;-7.064;2023-04-19T03:57:15;97642.44;;;17.04;36.52
60240;BME280;46102;39.012;-7.064;2023-04-19T03:59:17;97642.03;;;17.02;36.42
60240;BME280;46102;39.012;-7.064;2023-04-19T04:01:20;97651.50;;;17.01;36.38
60240;BME280;46102;39.012;-7.064;2023-04-19T04:03:22;97646.72;;;16.98;36.34
60240;BME280;46102;39.012;-7.064;2023-04-19T04:05:22;97643.97;;;16.98;36.37
60240;BME280;46102;39.012;-7.064;2023-04-19T04:07:23;97651.06;;;16.96;36.45
60240;BME280;46102;39.012;-7.064;2023-04-19T04:09:25;97659.28;;;16.89;36.47
60240;BME280;46102;39.012;-7.064;2023-04-19T04:11:26;97658.06;;;16.86;36.73
60240;BME280;46102;39.012;-7.064;2023-04-19T04:13:27;97658.34;;;16.77;36.81
60240;BME280;46102;39.012;-7.064;2023-04-19T04:15:39;97662.25;;;16.73;36.82
60240;BME280;46102;39.012;-7.064;2023-04-19T04:17:43;97658.69;;;16.69;37.01
60240;BME280;46102;39.012;-7.064;2023-04-19T04:19:44;97661.41;;;16.65;37.22
60240;BME280;46102;39.012;-7.064;2023-04-19T04:21:45;97666.94;;;16.65;37.12
60240;BME280;46102;39.012;-7.064;2023-04-19T04:23:47;97669.28;;;16.63;37.30
60240;BME280;46102;39.012;-7.064;2023-04-19T04:25:58;97669.66;;;16.61;37.67
60240;BME280;46102;39.012;-7.064;2023-04-19T04:28:06;97672.41;;;16.58;37.83
60240;BME280;46102;39.012;-7.064;2023-04-19T04:30:07;97668.41;;;16.55;38.27
60240;BME280;46102;39.012;-7.064;2023-04-19T04:32:09;97680.19;;;16.49;39.27
60240;BME280;46102;39.012;-7.064;2023-04-19T04:34:13;97671.81;;;16.41;39.67
60240;BME280;46102;39.012;-7.064;2023-04-19T04:36:23;97678.84;;;16.35;40.50
60240;BME280;46102;39.012;-7.064;2023-04-19T04:38:26;97677.59;;;16.29;40.72
60240;BME280;46102;39.012;-7.064;2023-04-19T04:40:28;97673.19;;;16.24;40.39
60240;BME280;46102;39.012;-7.064;2023-04-19T04:42:28;97673.94;;;16.21;40.62
60240;BME280;46102;39.012;-7.064;2023-04-19T04:44:31;97672.31;;;16.20;40.76
60240;BME280;46102;39.012;-7.064;2023-04-19T04:46:34;97679.41;;;16.18;40.99
60240;BME280;46102;39.012;-7.064;2023-04-19T04:48:36;97685.31;;;16.16;41.25
60240;BME280;46102;39.012;-7.064;2023-04-19T04:50:38;97686.88;;;16.14;41.30
60240;BME280;46102;39.012;-7.064;2023-04-19T04:52:39;97685.97;;;16.06;41.69
60240;BME280;46102;39.012;-7.064;2023-04-19T04:54:52;97687.84;;;15.98;42.68
60240;BME280;46102;39.012;-7.064;2023-04-19T04:56:59;97687.72;;;15.88;42.84
60240;BME280;46102;39.012;-7.064;2023-04-19T04:59:00;97687.97;;;15.79;44.06
60240;BME280;46102;39.012;-7.064;2023-04-19T05:01:06;97698.53;;;15.73;44.23
60240;BME280;46102;39.012;-7.064;2023-04-19T05:03:12;97690.44;;;15.61;44.64
60240;BME280;46102;39.012;-7.064;2023-04-19T05:05:20;97684.81;;;15.54;45.20
60240;BME280;46102;39.012;-7.064;2023-04-19T05:07:20;97692.22;;;15.50;45.65
60240;BME280;46102;39.012;-7.064;2023-04-19T05:09:21;97694.50;;;15.44;45.72
60240;BME280;46102;39.012;-7.064;2023-04-19T05:11:23;97686.97;;;15.41;45.56
60240;BME280;46102;39.012;-7.064;2023-04-19T05:13:26;97694.44;;;15.40;45.65
60240;BME280;46102;39.012;-7.064;2023-04-19T05:15:30;97693.63;;;15.40;45.93
60240;BME280;46102;39.012;-7.064;2023-04-19T05:17:31;97696.41;;;15.40;46.37
60240;BME280;46102;39.012;-7.064;2023-04-19T05:19:32;97700.66;;;15.34;46.64
60240;BME280;46102;39.012;-7.064;2023-04-19T05:21:39;97694.81;;;15.39;46.47
60240;BME280;46102;39.012;-7.064;2023-04-19T05:23:41;97697.94;;;15.37;46.46
60240;BME280;46102;39.012;-7.064;2023-04-19T05:25:43;97701.09;;;15.36;46.90
60240;BME280;46102;39.012;-7.064;2023-04-19T05:27:44;97697.50;;;15.35;46.92
60240;BME280;46102;39.012;-7.064;2023-04-19T05:29:45;97695.56;;;15.36;46.77
60240;BME280;46102;39.012;-7.064;2023-04-19T05:31:46;97699.91;;;15.37;46.73
60240;BME280;46102;39.012;-7.064;2023-04-19T05:34:06;97706.53;;;15.32;47.20
60240;BME280;46102;39.012;-7.064;2023-04-19T05:36:07;97708.44;;;15.28;47.35
60240;BME280;46102;39.012;-7.064;2023-04-19T05:38:08;97698.16;;;15.25;47.50
60240;BME280;46102;39.012;-7.064;2023-04-19T05:40:09;97711.59;;;15.27;47.14
60240;BME280;46102;39.012;-7.064;2023-04-19T05:42:10;97703.66;;;15.25;47.37
60240;BME280;46102;39.012;-7.064;2023-04-19T05:44:11;97708.84;;;15.27;47.10
60240;BME280;46102;39.012;-7.064;2023-04-19T05:46:11;97713.63;;;15.30;47.07
60240;BME280;46102;39.012;-7.064;2023-04-19T05:48:12;97713.19;;;15.28;47.58
60240;BME280;46102;39.012;-7.064;2023-04-19T05:50:35;97723.44;;;15.27;47.61
60240;BME280;46102;39.012;-7.064;2023-04-19T05:53:02;97712.31;;;15.24;47.89
60240;BME280;46102;39.012;-7.064;2023-04-19T05:55:03;97716.31;;;15.26;47.54
60240;BME280;46102;39.012;-7.064;2023-04-19T05:57:07;97714.75;;;15.29;47.67
60240;BME280;46102;39.012;-7.064;2023-04-19T05:59:07;97717.91;;;15.27;47.59
60240;BME280;46102;39.012;-7.064;2023-04-19T06:01:11;97717.91;;;15.27;47.50
60240;BME280;46102;39.012;-7.064;2023-04-19T06:03:12;97724.66;;;15.30;47.56
60240;BME280;46102;39.012;-7.064;2023-04-19T06:05:13;97732.53;;;15.28;47.72
60240;BME280;46102;39.012;-7.064;2023-04-19T06:07:14;97738.41;;;15.26;47.74
60240;BME280;46102;39.012;-7.064;2023-04-19T06:09:15;97737.63;;;15.26;47.96
60240;BME280;46102;39.012;-7.064;2023-04-19T06:11:17;97736.03;;;15.25;48.00
60240;BME280;46102;39.012;-7.064;2023-04-19T06:13:18;97741.47;;;15.21;48.18
60240;BME280;46102;39.012;-7.064;2023-04-19T06:15:20;97736.69;;;15.18;48.45
60240;BME280;46102;39.012;-7.064;2023-04-19T06:17:22;97740.56;;;15.13;48.54
60240;BME280;46102;39.012;-7.064;2023-04-19T06:19:24;97744.56;;;15.16;48.68
60240;BME280;46102;39.012;-7.064;2023-04-19T06:21:25;97750.31;;;15.07;48.69
60240;BME280;46102;39.012;-7.064;2023-04-19T06:23:26;97745.53;;;15.04;48.88
60240;BME280;46102;39.012;-7.064;2023-04-19T06:25:27;97743.16;;;15.06;48.81
60240;BME280;46102;39.012;-7.064;2023-04-19T06:27:27;97747.19;;;15.09;48.52
60240;BME280;46102;39.012;-7.064;2023-04-19T06:29:28;97749.22;;;15.12;48.60
60240;BME280;46102;39.012;-7.064;2023-04-19T06:31:29;97754.66;;;15.08;48.74
60240;BME280;46102;39.012;-7.064;2023-04-19T06:33:30;97749.56;;;15.10;48.57
60240;BME280;46102;39.012;-7.064;2023-04-19T06:35:31;97746.00;;;15.10;48.65
60240;BME280;46102;39.012;-7.064;2023-04-19T06:37:32;97745.22;;;15.09;48.95
60240;BME280;46102;39.012;-7.064;2023-04-19T06:39:33;97746.38;;;15.08;48.82
60240;BME280;46102;39.012;-7.064;2023-04-19T06:41:34;97757.50;;;15.12;48.82
60240;BME280;46102;39.012;-7.064;2023-04-19T06:43:35;97753.31;;;15.22;48.56
60240;BME280;46102;39.012;-7.064;2023-04-19T06:45:36;97758.69;;;15.34;48.24
60240;BME280;46102;39.012;-7.064;2023-04-19T06:47:37;97754.06;;;15.41;48.46
60240;BME280;46102;39.012;-7.064;2023-04-19T06:49:37;97756.72;;;15.57;47.80
60240;BME280;46102;39.012;-7.064;2023-04-19T06:51:38;97756.03;;;15.64;47.65
60240;BME280;46102;39.012;-7.064;2023-04-19T06:53:39;97758.94;;;15.71;48.06
60240;BME280;46102;39.012;-7.064;2023-04-19T06:55:40;97760.03;;;15.90;47.44
60240;BME280;46102;39.012;-7.064;2023-04-19T06:57:41;97758.94;;;15.94;47.56
60240;BME280;46102;39.012;-7.064;2023-04-19T06:59:43;97762.16;;;16.00;47.78
60240;BME280;46102;39.012;-7.064;2023-04-19T07:01:44;97757.59;;;16.11;47.48
60240;BME280;46102;39.012;-7.064;2023-04-19T07:03:45;97761.63;;;16.17;47.50
60240;BME280;46102;39.012;-7.064;2023-04-19T07:05:46;97761.03;;;16.31;47.29
60240;BME280;46102;39.012;-7.064;2023-04-19T07:07:47;97762.81;;;16.47;46.88
60240;BME280;46102;39.012;-7.064;2023-04-19T07:09:48;97773.78;;;16.70;46.10
60240;BME280;46102;39.012;-7.064;2023-04-19T07:11:49;97773.50;;;16.78;46.25
60240;BME280;46102;39.012;-7.064;2023-04-19T07:13:50;97765.81;;;16.95;45.86
60240;BME280;46102;39.012;-7.064;2023-04-19T07:15:51;97775.53;;;17.15;45.58
60240;BME280;46102;39.012;-7.064;2023-04-19T07:17:52;97769.00;;;17.34;45.02
60240;BME280;46102;39.012;-7.064;2023-04-19T07:19:53;97773.91;;;17.52;44.42
60240;BME280;46102;39.012;-7.064;2023-04-19T07:21:53;97767.72;;;17.65;43.93
60240;BME280;46102;39.012;-7.064;2023-04-19T07:23:54;97776.22;;;17.83;43.30
60240;BME280;46102;39.012;-7.064;2023-04-19T07:25:55;97778.69;;;17.96;42.94
60240;BME280;46102;39.012;-7.064;2023-04-19T07:27:56;97783.13;;;18.04;42.67
60240;BME280;46102;39.012;-7.064;2023-04-19T07:29:56;97787.53;;;18.16;42.34
60240;BME280;46102;39.012;-7.064;2023-04-19T07:31:57;97793.19;;;18.26;42.10
60240;BME280;46102;39.012;-7.064;2023-04-19T07:34:00;97796.81;;;18.38;41.67
60240;BME280;46102;39.012;-7.064;2023-04-19T07:36:01;97789.28;;;18.38;41.60
60240;BME280;46102;39.012;-7.064;2023-04-19T07:38:02;97790.13;;;18.49;41.61
60240;BME280;46102;39.012;-7.064;2023-04-19T07:40:03;97793.78;;;18.61;41.41
60240;BME280;46102;39.012;-7.064;2023-04-19T07:42:04;97791.09;;;18.82;41.06
60240;BME280;46102;39.012;-7.064;2023-04-19T07:44:05;97788.81;;;19.02;40.54
60240;BME280;46102;39.012;-7.064;2023-04-19T07:46:10;97790.44;;;19.18;40.18
60240;BME280;46102;39.012;-7.064;2023-04-19T07:48:11;97788.50;;;19.36;39.77
60240;BME280;46102;39.012;-7.064;2023-04-19T07:50:11;97786.56;;;19.51;39.44
60240;BME280;46102;39.012;-7.064;2023-04-19T07:52:12;97790.53;;;19.50;39.41
60240;BME280;46102;39.012;-7.064;2023-04-19T07:54:13;97799.31;;;19.66;39.16
60240;BME280;46102;39.012;-7.064;2023-04-19T07:56:15;97789.78;;;19.71;39.21
60240;BME280;46102;39.012;-7.064;2023-04-19T07:58:16;97795.75;;;19.73;39.29
60240;BME280;46102;39.012;-7.064;2023-04-19T08:00:17;97798.94;;;19.79;39.23
60240;BME280;46102;39.012;-7.064;2023-04-19T08:02:18;97807.69;;;19.88;39.21
60240;BME280;46102;39.012;-7.064;2023-04-19T08:04:19;97796.56;;;20.02;38.90
60240;BME280;46102;39.012;-7.064;2023-04-19T08:06:22;97800.53;;;19.98;39.09
60240;BME280;46102;39.012;-7.064;2023-04-19T08:08:23;97797.34;;;19.81;38.96
60240;BME280;46102;39.012;-7.064;2023-04-19T08:10:25;97800.13;;;19.85;39.29
60240;BME280;46102;39.012;-7.064;2023-04-19T08:12:28;97799.72;;;19.90;39.23
60240;BME280;46102;39.012;-7.064;2023-04-19T08:14:28;97794.97;;;19.76;39.52
60240;BME280;46102;39.012;-7.064;2023-04-19T08:16:29;97802.50;;;19.90;39.37
60240;BME280;46102;39.012;-7.064;2023-04-19T08:18:32;97800.13;;;19.99;39.22
60240;BME280;46102;39.012;-7.064;2023-04-19T08:20:33;97799.72;;;20.22;38.88
60240;BME280;46102;39.012;-7.064;2023-04-19T08:22:36;97803.28;;;20.30;38.45
60240;BME280;46102;39.012;-7.064;2023-04-19T08:24:36;97806.84;;;20.48;38.48
60240;BME280;46102;39.012;-7.064;2023-04-19T08:26:37;97805.63;;;20.53;38.20
60240;BME280;46102;39.012;-7.064;2023-04-19T08:28:38;97808.84;;;20.51;38.04
60240;BME280;46102;39.012;-7.064;2023-04-19T08:30:39;97813.56;;;20.69;37.56
60240;BME280;46102;39.012;-7.064;2023-04-19T08:32:40;97806.41;;;20.71;37.57
60240;BME280;46102;39.012;-7.064;2023-04-19T08:34:41;97817.19;;;20.48;38.14
60240;BME280;46102;39.012;-7.064;2023-04-19T08:36:42;97815.59;;;20.50;37.88
60240;BME280;46102;39.012;-7.064;2023-04-19T08:38:43;97823.19;;;20.25;38.53
60240;BME280;46102;39.012;-7.064;2023-04-19T08:40:51;97827.16;;;20.24;38.38
60240;BME280;46102;39.012;-7.064;2023-04-19T08:42:52;97826.34;;;20.20;39.09
60240;BME280;46102;39.012;-7.064;2023-04-19T08:44:53;97824.41;;;20.02;38.80
60240;BME280;46102;39.012;-7.064;2023-04-19T08:46:59;97815.22;;;20.20;38.81
60240;BME280;46102;39.012;-7.064;2023-04-19T08:49:04;97824.34;;;20.45;37.96
60240;BME280;46102;39.012;-7.064;2023-04-19T08:51:05;97832.69;;;20.67;37.72
60240;BME280;46102;39.012;-7.064;2023-04-19T08:53:10;97830.66;;;20.82;37.43
60240;BME280;46102;39.012;-7.064;2023-04-19T08:55:10;97836.59;;;20.94;37.58
60240;BME280;46102;39.012;-7.064;2023-04-19T08:57:12;97836.53;;;21.09;37.33
60240;BME280;46102;39.012;-7.064;2023-04-19T08:59:13;97835.63;;;21.44;35.94
60240;BME280;46102;39.012;-7.064;2023-04-19T09:01:13;97830.34;;;21.57;35.66
60240;BME280;46102;39.012;-7.064;2023-04-19T09:03:14;97833.78;;;21.82;35.22
60240;BME280;46102;39.012;-7.064;2023-04-19T09:05:17;97837.47;;;22.21;34.28
60240;BME280;46102;39.012;-7.064;2023-04-19T09:07:26;97838.66;;;22.23;34.19
60240;BME280;46102;39.012;-7.064;2023-04-19T09:09:28;97831.09;;;22.20;34.25
60240;BME280;46102;39.012;-7.064;2023-04-19T09:11:36;97836.47;;;22.45;33.80
60240;BME280;46102;39.012;-7.064;2023-04-19T09:13:39;97838.91;;;22.40;33.63
60240;BME280;46102;39.012;-7.064;2023-04-19T09:15:41;97845.44;;;22.68;33.38
60240;BME280;46102;39.012;-7.064;2023-04-19T09:18:02;97842.22;;;23.07;32.99
60240;BME280;46102;39.012;-7.064;2023-04-19T09:20:04;97838.44;;;23.24;32.40
60240;BME280;46102;39.012;-7.064;2023-04-19T09:22:12;97841.16;;;23.28;32.08
60240;BME280;46102;39.012;-7.064;2023-04-19T09:24:14;97844.81;;;23.25;32.04
60240;BME280;46102;39.012;-7.064;2023-04-19T09:26:15;97842.75;;;23.29;31.84
60240;BME280;46102;39.012;-7.064;2023-04-19T09:28:15;97850.31;;;23.63;31.44
60240;BME280;46102;39.012;-7.064;2023-04-19T09:30:20;97841.34;;;23.75;31.32
60240;BME280;46102;39.012;-7.064;2023-04-19T09:32:23;97850.59;;;23.99;30.83
60240;BME280;46102;39.012;-7.064;2023-04-19T09:34:24;97855.63;;;24.12;30.60
60240;BME280;46102;39.012;-7.064;2023-04-19T09:36:26;97863.16;;;24.15;30.58
60240;BME280;46102;39.012;-7.064;2023-04-19T09:38:27;97857.38;;;24.25;30.37
60240;BME280;46102;39.012;-7.064;2023-04-19T09:40:28;97852.91;;;24.55;30.07
60240;BME280;46102;39.012;-7.064;2023-04-19T09:42:45;97865.25;;;24.58;29.80
60240;BME280;46102;39.012;-7.064;2023-04-19T09:44:58;97858.47;;;24.79;30.08
60240;BME280;46102;39.012;-7.064;2023-04-19T09:46:59;97858.63;;;24.91;29.68
60240;BME280;46102;39.012;-7.064;2023-04-19T09:49:19;97852.69;;;25.29;29.06
60240;BME280;46102;39.012;-7.064;2023-04-19T09:51:22;97854.34;;;25.47;28.94
60240;BME280;46102;39.012;-7.064;2023-04-19T09:53:24;97861.72;;;25.57;28.40
60240;BME280;46102;39.012;-7.064;2023-04-19T09:55:26;97856.44;;;25.79;28.57
60240;BME280;46102;39.012;-7.064;2023-04-19T09:57:27;97865.09;;;25.68;28.44
60240;BME280;46102;39.012;-7.064;2023-04-19T09:59:27;97864.53;;;25.57;28.88
60240;BME280;46102;39.012;-7.064;2023-04-19T10:01:33;97870.31;;;25.30;28.56
60240;BME280;46102;39.012;-7.064;2023-04-19T10:03:34;97873.78;;;25.38;29.08
60240;BME280;46102;39.012;-7.064;2023-04-19T10:05:39;97877.75;;;25.20;28.87
60240;BME280;46102;39.012;-7.064;2023-04-19T10:07:43;97877.44;;;25.34;28.85
60240;BME280;46102;39.012;-7.064;2023-04-19T10:09:45;97878.91;;;25.23;28.91
60240;BME280;46102;39.012;-7.064;2023-04-19T10:11:48;97876.16;;;25.39;28.54
60240;BME280;46102;39.012;-7.064;2023-04-19T10:13:53;97880.72;;;25.69;28.05
60240;BME280;46102;39.012;-7.064;2023-04-19T10:15:55;97882.22;;;25.94;27.92
60240;BME280;46102;39.012;-7.064;2023-04-19T10:17:56;97878.72;;;26.23;27.02
60240;BME280;46102;39.012;-7.064;2023-04-19T10:20:02;97881.53;;;26.39;27.14
60240;BME280;46102;39.012;-7.064;2023-04-19T10:22:06;97876.34;;;26.37;27.02
60240;BME280;46102;39.012;-7.064;2023-04-19T10:24:09;97867.03;;;26.24;27.00
60240;BME280;46102;39.012;-7.064;2023-04-19T10:26:12;97871.34;;;26.12;26.54
60240;BME280;46102;39.012;-7.064;2023-04-19T10:28:14;97869.31;;;26.46;26.67
60240;BME280;46102;39.012;-7.064;2023-04-19T10:30:22;97863.44;;;26.56;26.30
60240;BME280;46102;39.012;-7.064;2023-04-19T10:32:37;97863.00;;;26.58;26.44
60240;BME280;46102;39.012;-7.064;2023-04-19T10:34:38;97870.53;;;26.77;25.85
60240;BME280;46102;39.012;-7.064;2023-04-19T10:36:39;97859.31;;;26.90;26.10
60240;BME280;46102;39.012;-7.064;2023-04-19T10:38:42;97864.81;;;27.10;25.55
60240;BME280;46102;39.012;-7.064;2023-04-19T10:43:14;97860.91;;;26.91;25.61